Time;durP1;ratioP1;P1;durP2;ratioP2;P2;SDS_P1;SDS_P2;PMS_P1;PMS_P2;Temp;Humidity;BMP_temperature;BMP_pressure;BME280_temperature;BME280_humidity;BME280_pressure;Samples;Min_cycle;Max_cycle;Signal;HPM_P1;HPM_P2
2022/12/22 03:25:50;;;;;;;10.03;6.57;;;8.10;83.20;8.00;95936.00;;;;5081287;28;20723;-85
2022/12/22 03:28:17;;;;;;;8.33;6.30;;;8.10;83.20;8.00;95921.00;;;;5080897;28;20200;-85
2022/12/22 03:30:45;;;;;;;7.13;6.40;;;8.10;83.20;8.00;95923.00;;;;5080925;28;20203;-85
2022/12/22 03:33:13;;;;;;;6.17;5.67;;;8.10;83.00;8.10;95922.00;;;;5081557;28;20318;-85
2022/12/22 03:35:40;;;;;;;6.80;6.10;;;8.20;83.10;8.10;95917.00;;;;5081932;28;20203;-85
2022/12/22 03:38:07;;;;;;;7.10;5.97;;;8.20;83.20;8.10;95922.00;;;;5081322;28;20207;-85
2022/12/22 03:40:34;;;;;;;6.33;5.80;;;8.20;83.10;8.10;95924.00;;;;5080684;28;20206;-85
2022/12/22 03:48:32;;;;;;;6.47;5.70;;;8.20;83.10;8.10;95916.00;;;;5079349;28;21249;-85
2022/12/22 03:50:59;;;;;;;5.83;5.27;;;8.20;83.10;8.20;95918.00;;;;5079966;28;20200;-85
2022/12/22 03:53:26;;;;;;;5.57;5.07;;;8.20;83.10;8.20;95919.00;;;;5080154;28;20223;-86
2022/12/22 03:55:53;;;;;;;6.30;5.70;;;8.20;83.00;8.20;95916.00;;;;5078134;28;20196;-85
2022/12/22 03:58:20;;;;;;;6.50;5.57;;;8.20;83.10;8.20;95920.00;;;;5079430;28;20216;-86
2022/12/22 04:00:48;;;;;;;9.17;5.33;;;8.20;83.10;8.20;95917.00;;;;5079398;28;20206;-86
2022/12/22 04:03:16;;;;;;;5.63;5.13;;;8.30;83.20;8.20;95923.00;;;;5079453;28;20720;-85
2022/12/22 04:05:45;;;;;;;6.17;5.57;;;8.30;83.80;8.20;95917.00;;;;5077615;28;20208;-84
2022/12/22 04:08:12;;;;;;;5.73;5.23;;;8.30;83.20;8.20;95926.00;;;;5078903;28;20297;-85
2022/12/22 04:13:24;;;;;;;7.70;6.40;;;8.30;83.50;8.20;95921.00;;;;5079544;28;20233;-85
2022/12/22 04:15:51;;;;;;;8.97;6.27;;;8.30;83.60;8.20;95917.00;;;;5079690;28;20286;-86
2022/12/22 04:18:18;;;;;;;6.67;5.13;;;8.30;83.70;8.30;95913.00;;;;5078666;28;20282;-85
2022/12/22 04:20:49;;;;;;;8.53;6.03;;;8.30;83.60;8.20;95917.00;;;;5078507;28;20734;-84
2022/12/22 04:23:16;;;;;;;7.60;5.70;;;8.30;83.70;8.30;95909.00;;;;5078923;28;20674;-85
2022/12/22 04:25:43;;;;;;;7.87;5.87;;;8.30;83.70;8.30;95902.00;;;;5081827;28;20228;-86
2022/12/22 04:28:10;;;;;;;6.53;5.63;;;8.30;83.70;8.30;95910.00;;;;5079080;28;20222;-83
2022/12/22 04:30:37;;;;;;;6.57;5.87;;;8.30;83.80;8.30;95899.00;;;;5077004;28;20211;-84
2022/12/22 04:33:04;;;;;;;6.07;5.47;;;8.30;83.80;8.30;95897.00;;;;5079319;28;20231;-85
2022/12/22 04:35:31;;;;;;;6.33;5.37;;;8.30;83.80;8.30;95901.00;;;;5076641;28;20671;-85
2022/12/22 04:38:00;;;;;;;7.20;5.83;;;8.30;83.70;8.30;95888.00;;;;5078797;28;20578;-85
2022/12/22 04:40:27;;;;;;;8.00;6.10;;;8.40;83.70;8.30;95889.00;;;;5079028;28;20330;-85
2022/12/22 04:42:54;;;;;;;5.60;5.00;;;8.40;83.70;8.30;95895.00;;;;5080033;28;20232;-85
2022/12/22 04:45:21;;;;;;;7.17;5.93;;;8.40;83.70;8.30;95895.00;;;;5078086;28;20230;-85
2022/12/22 04:47:48;;;;;;;6.23;5.40;;;8.40;83.80;8.30;95887.00;;;;5078694;28;20287;-85
2022/12/22 04:50:15;;;;;;;5.63;5.13;;;8.40;83.80;8.40;95890.00;;;;5078065;28;20199;-85
2022/12/22 04:52:43;;;;;;;5.50;5.00;;;8.40;83.80;8.30;95887.00;;;;5077149;28;20796;-85
2022/12/22 04:55:11;;;;;;;5.77;5.17;;;8.40;83.80;8.40;95890.00;;;;5078733;28;20230;-83
2022/12/22 04:57:38;;;;;;;8.60;5.33;;;8.40;83.80;8.40;95881.00;;;;5079043;28;20638;-84
2022/12/22 05:00:08;;;;;;;5.87;5.37;;;8.40;83.80;8.40;95878.00;;;;5077371;28;20804;-84
2022/12/22 05:02:37;;;;;;;6.83;5.23;;;8.40;83.80;8.40;95872.00;;;;5076584;28;20227;-83
2022/12/22 05:05:04;;;;;;;5.80;5.20;;;8.40;83.80;8.40;95868.00;;;;5078092;28;20203;-84
2022/12/22 05:07:32;;;;;;;8.40;5.17;;;8.40;83.70;8.40;95862.00;;;;5077172;28;20206;-84
2022/12/22 05:09:59;;;;;;;8.00;5.27;;;8.40;83.70;8.40;95855.00;;;;5076343;28;20772;-85
2022/12/22 05:15:12;;;;;;;5.00;4.47;;;8.40;83.80;8.40;95869.00;;;;5087973;28;20834;-86
2022/12/22 05:17:39;;;;;;;5.30;4.80;;;8.40;83.70;8.40;95858.00;;;;5093158;28;20231;-85
2022/12/22 05:20:08;;;;;;;5.27;4.77;;;8.40;83.70;8.40;95862.00;;;;5096541;28;20235;-85
2022/12/22 05:22:35;;;;;;;6.67;4.97;;;8.40;83.80;8.40;95867.00;;;;5097120;28;20279;-85
2022/12/22 05:25:02;;;;;;;6.40;4.83;;;8.40;83.80;8.40;95859.00;;;;5096054;28;20200;-86
2022/12/22 05:27:31;;;;;;;5.97;5.00;;;8.40;83.90;8.40;95863.00;;;;5095354;28;20219;-84
2022/12/22 05:29:58;;;;;;;4.97;4.57;;;8.40;83.80;8.40;95862.00;;;;5095895;28;20203;-84
2022/12/22 05:32:25;;;;;;;5.33;4.83;;;8.50;83.90;8.40;95857.00;;;;5092263;28;20322;-82
2022/12/22 05:34:52;;;;;;;5.63;4.67;;;8.40;83.80;8.40;95849.00;;;;5092493;28;20196;-82
2022/12/22 05:37:19;;;;;;;8.13;5.07;;;8.40;83.90;8.40;95853.00;;;;5092651;28;20218;-82
2022/12/22 05:39:47;;;;;;;6.40;4.87;;;8.40;84.00;8.40;95861.00;;;;5085383;28;20213;-82
2022/12/22 05:42:14;;;;;;;5.33;4.93;;;8.50;84.00;8.40;95855.00;;;;5078650;28;20720;-82
2022/12/22 05:45:05;;;;;;;5.47;4.87;;;8.50;83.90;8.40;95851.00;;;;5080667;28;20203;-83
2022/12/22 05:47:32;;;;;;;4.30;4.00;;;8.50;83.80;8.40;95856.00;;;;5079809;28;20207;-83
2022/12/22 05:49:59;;;;;;;4.30;3.90;;;8.50;83.70;8.40;95856.00;;;;5080667;28;20242;-83
2022/12/22 05:52:26;;;;;;;5.37;4.63;;;8.50;83.70;8.40;95859.00;;;;5081494;28;20318;-83
2022/12/22 05:54:54;;;;;;;4.97;4.00;;;8.50;84.40;8.40;95856.00;;;;5081916;28;20199;-83
2022/12/22 05:57:21;;;;;;;4.70;4.30;;;8.50;83.60;8.40;95850.00;;;;5079797;28;20282;-83
2022/12/22 05:59:49;;;;;;;4.60;4.17;;;8.40;83.50;8.30;95851.00;;;;5082726;28;20231;-83
2022/12/22 06:02:17;;;;;;;4.50;4.10;;;8.40;83.40;8.30;95840.00;;;;5080713;28;20224;-81
2022/12/22 06:04:44;;;;;;;4.50;3.53;;;8.40;83.20;8.30;95840.00;;;;5082435;28;20293;-83
2022/12/22 06:07:11;;;;;;;4.33;3.93;;;8.40;83.00;8.20;95850.00;;;;5080144;28;20313;-82
2022/12/22 06:09:39;;;;;;;4.17;3.77;;;8.40;83.00;8.20;95839.00;;;;5081087;28;20290;-82
2022/12/22 06:12:07;;;;;;;3.80;3.40;;;8.40;83.20;8.20;95846.00;;;;5080067;28;20499;-82
2022/12/22 06:14:34;;;;;;;3.60;3.30;;;8.30;83.10;8.20;95841.00;;;;5078964;28;20265;-82
2022/12/22 06:17:01;;;;;;;3.33;3.03;;;8.30;83.10;8.10;95843.00;;;;5080737;28;20326;-83
2022/12/22 06:19:29;;;;;;;3.13;2.93;;;8.30;83.00;8.10;95844.00;;;;5080808;28;20249;-83
2022/12/22 06:21:56;;;;;;;4.23;3.30;;;8.30;83.00;8.10;95844.00;;;;5080265;28;20227;-83
2022/12/22 06:24:23;;;;;;;3.87;3.47;;;8.30;83.00;8.10;95841.00;;;;5080757;28;20242;-83
2022/12/22 06:26:51;;;;;;;4.10;2.97;;;8.30;83.00;8.10;95847.00;;;;5078721;28;20565;-82
2022/12/22 06:29:18;;;;;;;3.40;3.10;;;8.20;82.80;8.10;95838.00;;;;5080029;28;20232;-83
2022/12/22 06:31:45;;;;;;;3.47;3.00;;;8.20;82.90;8.00;95831.00;;;;5080943;28;20638;-82
2022/12/22 06:34:12;;;;;;;2.90;2.70;;;8.20;83.10;8.00;95826.00;;;;5080171;28;20223;-82
2022/12/22 06:36:41;;;;;;;2.80;2.60;;;8.20;83.10;8.00;95828.00;;;;5080493;28;20235;-83
2022/12/22 06:39:08;;;;;;;3.90;3.60;;;8.20;83.10;8.00;95825.00;;;;5080564;28;20254;-83
2022/12/22 06:44:20;;;;;;;5.10;4.53;;;8.20;83.00;8.00;95831.00;;;;5077270;28;20201;-82
2022/12/22 06:46:47;;;;;;;5.37;3.77;;;8.10;82.90;7.90;95835.00;;;;5079629;28;20211;-82
2022/12/22 06:49:14;;;;;;;5.03;4.20;;;8.10;82.90;7.90;95839.00;;;;5080216;28;20285;-82
2022/12/22 06:51:43;;;;;;;4.20;3.80;;;8.10;83.10;7.90;95840.00;;;;5080890;28;20282;-82
2022/12/22 06:54:10;;;;;;;4.33;3.90;;;8.10;83.20;7.90;95844.00;;;;5078920;28;20237;-83
2022/12/22 06:56:37;;;;;;;5.83;3.87;;;8.10;83.20;7.90;95846.00;;;;5079178;28;20207;-82
2022/12/22 06:59:04;;;;;;;4.37;3.60;;;8.10;83.20;7.90;95835.00;;;;5078023;28;20234;-82
2022/12/22 07:01:31;;;;;;;3.93;3.53;;;8.10;83.30;7.90;95842.00;;;;5077098;28;20208;-82
2022/12/22 07:03:59;;;;;;;4.23;3.60;;;8.10;83.40;7.90;95855.00;;;;5079137;28;20263;-81
2022/12/22 07:06:26;;;;;;;3.67;3.37;;;8.10;83.50;7.90;95852.00;;;;5078854;28;20206;-83
2022/12/22 07:08:54;;;;;;;4.20;3.53;;;8.10;83.90;8.00;95855.00;;;;5078366;28;20223;-83
2022/12/22 07:11:22;;;;;;;3.57;3.27;;;8.10;84.00;8.00;95849.00;;;;5076615;28;21052;-83
2022/12/22 07:13:49;;;;;;;3.27;3.00;;;8.10;84.10;8.00;95850.00;;;;5077609;28;20270;-82
2022/12/22 07:16:16;;;;;;;3.47;3.17;;;8.10;84.40;8.10;95845.00;;;;5079749;28;20285;-82
2022/12/22 07:18:43;;;;;;;3.03;2.80;;;8.10;84.30;8.10;95842.00;;;;5077254;28;20291;-86
2022/12/22 07:21:13;;;;;;;3.23;2.50;;;8.20;85.00;8.10;95832.00;;;;5077092;28;20758;-86
2022/12/22 07:23:41;;;;;;;2.77;2.57;;;8.20;84.20;8.20;95847.00;;;;5074926;28;20321;-87
2022/12/22 07:26:11;;;;;;;4.13;3.00;;;8.20;84.20;8.20;95836.00;;;;5074205;28;20209;-86
2022/12/22 07:28:41;;;;;;;2.43;2.23;;;8.20;84.30;8.30;95830.00;;;;5077163;28;20661;-87
2022/12/22 07:31:10;;;;;;;2.90;2.70;;;8.30;84.30;8.30;95844.00;;;;5078397;28;20196;-86
2022/12/22 07:33:38;;;;;;;2.93;2.63;;;8.30;84.30;8.40;95828.00;;;;5076867;28;20219;-86
2022/12/22 07:36:09;;;;;;;2.60;2.40;;;8.30;84.40;8.40;95829.00;;;;5078096;28;20191;-86
2022/12/22 07:38:40;;;;;;;2.10;2.00;;;8.30;84.70;8.50;95828.00;;;;5076714;28;20199;-86
2022/12/22 07:43:51;;;;;;;1.20;1.10;;;8.50;85.40;8.70;95832.00;;;;5079212;28;20230;-86
2022/12/22 07:46:18;;;;;;;1.37;0.90;;;8.50;86.00;8.80;95833.00;;;;5077108;28;20302;-86
2022/12/22 07:51:33;;;;;;;1.07;0.90;;;8.80;87.40;9.20;95847.00;;;;5092080;28;20202;-87
2022/12/22 07:54:00;;;;;;;0.97;0.93;;;8.90;88.10;9.40;95847.00;;;;5090236;28;20219;-86
2022/12/22 07:56:29;;;;;;;1.43;0.87;;;9.10;88.60;9.50;95835.00;;;;5083058;28;20643;-87
2022/12/22 07:58:57;;;;;;;1.40;0.90;;;9.30;89.00;9.70;95835.00;;;;5077697;28;20287;-87
2022/12/22 08:01:24;;;;;;;1.30;0.50;;;9.40;89.20;9.90;95837.00;;;;5078580;28;20288;-87
2022/12/22 08:03:51;;;;;;;1.97;0.73;;;9.60;89.30;10.00;95836.00;;;;5079954;28;20219;-87
2022/12/22 08:06:19;;;;;;;2.33;0.60;;;9.80;89.30;10.20;95844.00;;;;5079770;28;20292;-87
2022/12/22 08:08:46;;;;;;;1.50;0.50;;;9.90;89.20;10.30;95849.00;;;;5078241;28;20211;-87
2022/12/22 08:11:14;;;;;;;1.07;0.70;;;10.10;89.10;10.50;95848.00;;;;5080009;28;20681;-87
2022/12/22 08:13:43;;;;;;;1.60;0.67;;;10.20;88.90;10.60;95845.00;;;;5078317;28;20266;-87
2022/12/22 08:16:13;;;;;;;1.00;0.90;;;10.40;88.80;10.70;95845.00;;;;5078530;28;20206;-87
2022/12/22 08:18:41;;;;;;;1.57;0.93;;;10.50;88.50;10.80;95840.00;;;;5079413;28;20287;-87
2022/12/22 08:21:09;;;;;;;0.67;0.57;;;10.50;88.20;10.90;95856.00;;;;5078908;28;20206;-87
2022/12/22 08:23:37;;;;;;;0.93;0.70;;;10.70;88.10;11.00;95848.00;;;;5078288;28;20905;-87
2022/12/22 08:26:11;;;;;;;1.80;0.50;;;10.80;88.10;11.10;95845.00;;;;5078111;28;20203;-87
2022/12/22 08:28:44;;;;;;;0.87;0.80;;;10.90;87.80;11.20;95847.00;;;;5078974;28;20222;-86
2022/12/22 08:31:12;;;;;;;2.20;0.70;;;11.00;87.70;11.30;95842.00;;;;5081299;28;20199;-85
2022/12/22 08:33:39;;;;;;;0.70;0.60;;;11.10;87.60;11.30;95835.00;;;;5079914;28;20354;-87
2022/12/22 08:36:09;;;;;;;1.50;0.47;;;11.20;87.30;11.40;95837.00;;;;5078883;28;20283;-87
2022/12/22 08:38:39;;;;;;;2.87;0.57;;;11.30;87.10;11.50;95840.00;;;;5079454;28;20215;-88
2022/12/22 08:41:08;;;;;;;1.40;0.67;;;11.40;87.00;11.60;95841.00;;;;5076873;28;20199;-87
2022/12/22 08:43:35;;;;;;;1.33;0.60;;;11.50;86.70;11.60;95839.00;;;;5078234;28;20233;-86
2022/12/22 08:46:04;;;;;;;0.67;0.67;;;11.60;86.50;11.70;95851.00;;;;5076750;28;20203;-87
2022/12/22 08:48:32;;;;;;;1.23;0.80;;;11.60;86.30;11.70;95841.00;;;;5073508;28;20618;-87
2022/12/22 08:50:59;;;;;;;0.83;0.67;;;11.70;86.30;11.80;95850.00;;;;5075621;28;20310;-87
2022/12/22 08:53:26;;;;;;;1.40;0.80;;;11.70;86.10;11.90;95846.00;;;;5076677;28;20313;-87
2022/12/22 08:55:55;;;;;;;1.27;0.60;;;11.80;86.30;11.90;95854.00;;;;5075025;28;20291;-87
2022/12/22 08:58:23;;;;;;;0.80;0.80;;;11.90;86.30;12.00;95848.00;;;;5075797;28;20204;-87
2022/12/22 09:00:50;;;;;;;0.80;0.70;;;11.90;86.40;12.10;95850.00;;;;5071856;28;20196;-87
2022/12/22 09:03:18;;;;;;;1.80;1.23;;;12.00;86.40;12.20;95852.00;;;;5077448;28;20223;-87
2022/12/22 09:05:45;;;;;;;2.13;0.97;;;12.10;86.40;12.30;95852.00;;;;5078924;28;20650;-87
2022/12/22 09:08:12;;;;;;;2.33;0.90;;;12.10;86.20;12.40;95859.00;;;;5079784;28;20207;-87
2022/12/22 09:10:43;;;;;;;1.93;0.87;;;12.20;86.00;12.40;95858.00;;;;5080208;28;20188;-87
2022/12/22 09:13:10;;;;;;;0.90;0.67;;;12.30;85.80;12.50;95867.00;;;;5082730;28;20222;-87
2022/12/22 09:15:38;;;;;;;1.77;0.87;;;12.30;85.60;12.50;95875.00;;;;5080642;28;20582;-87
2022/12/22 09:18:05;;;;;;;1.80;0.90;;;12.40;85.20;12.60;95871.00;;;;5090958;28;20196;-87
2022/12/22 09:20:33;;;;;;;1.90;0.63;;;12.40;85.00;12.60;95887.00;;;;5091397;28;20231;-87
2022/12/22 09:23:01;;;;;;;1.23;0.70;;;12.50;84.80;12.60;95884.00;;;;5099348;28;20223;-87
2022/12/22 09:25:28;;;;;;;1.57;0.70;;;12.50;84.50;12.60;95870.00;;;;5102505;28;20271;-87
2022/12/22 09:27:55;;;;;;;1.80;0.90;;;12.50;84.30;12.70;95882.00;;;;5096945;28;20223;-88
2022/12/22 09:30:22;;;;;;;1.83;0.90;;;12.50;84.10;12.70;95892.00;;;;5089171;28;20286;-87
2022/12/22 09:32:49;;;;;;;1.80;0.60;;;12.60;84.30;12.70;95888.00;;;;5086302;28;20283;-87
2022/12/22 09:35:16;;;;;;;1.13;0.70;;;12.60;84.10;12.70;95890.00;;;;5088983;28;20966;-87
2022/12/22 09:37:45;;;;;;;2.77;0.90;;;12.60;84.10;12.80;95881.00;;;;5095584;28;20239;-87
2022/12/22 09:40:13;;;;;;;1.77;1.20;;;12.70;84.10;12.80;95871.00;;;;5097069;28;20192;-87
2022/12/22 09:42:40;;;;;;;3.50;1.20;;;12.70;83.90;12.80;95874.00;;;;5088397;28;20303;-89
2022/12/22 09:45:18;;;;;;;5.90;1.33;;;12.70;84.20;12.90;95865.00;;;;5082752;28;20318;-88
2022/12/22 09:47:52;;;;;;;2.03;0.80;;;12.80;84.00;12.90;95860.00;;;;5081561;28;20192;-88
2022/12/22 09:50:24;;;;;;;1.93;0.60;;;12.80;84.00;12.90;95862.00;;;;5083514;28;20681;-87
2022/12/22 09:52:56;;;;;;;1.17;0.80;;;12.80;83.20;12.90;95865.00;;;;5082110;28;20299;-87
2022/12/22 09:55:39;;;;;;;2.03;0.70;;;12.80;84.00;12.90;95866.00;;;;5076260;28;20294;-87
2022/12/22 09:58:20;;;;;;;1.53;0.73;;;12.90;83.20;12.90;95854.00;;;;5077783;28;20228;-87
2022/12/22 10:00:53;;;;;;;0.60;0.40;;;12.90;83.80;13.00;95877.00;;;;5077693;28;20331;-87
2022/12/22 10:03:34;;;;;;;1.13;0.50;;;12.90;84.60;13.10;95871.00;;;;5078746;28;20318;-87
2022/12/22 10:06:12;;;;;;;0.90;0.60;;;13.00;83.80;13.20;95869.00;;;;5080081;28;20314;-87
2022/12/22 10:08:41;;;;;;;0.83;0.63;;;13.10;84.10;13.20;95874.00;;;;5080531;28;20191;-87
2022/12/22 10:11:14;;;;;;;1.43;0.60;;;13.00;84.20;13.30;95874.00;;;;5080205;28;20286;-87
2022/12/22 10:13:42;;;;;;;1.93;0.77;;;13.20;83.80;13.30;95851.00;;;;5076906;28;20581;-87
2022/12/22 10:16:28;;;;;;;2.30;0.70;;;13.20;83.90;13.40;95857.00;;;;5082459;28;20687;-88
2022/12/22 10:19:08;;;;;;;2.20;0.80;;;13.30;82.80;13.40;95859.00;;;;5079342;28;20543;-88
2022/12/22 10:21:36;;;;;;;1.47;0.60;;;13.30;83.20;13.40;95855.00;;;;5078269;28;20295;-87
2022/12/22 10:24:19;;;;;;;2.03;0.63;;;13.30;83.30;13.50;95865.00;;;;5076375;28;20218;-88
2022/12/22 10:26:48;;;;;;;1.60;0.53;;;13.40;82.30;13.50;95851.00;;;;5081081;28;20195;-88
2022/12/22 10:29:18;;;;;;;1.17;0.50;;;13.40;83.10;13.50;95847.00;;;;5084278;28;20245;-87
2022/12/22 10:32:01;;;;;;;2.30;0.73;;;13.40;82.60;13.50;95836.00;;;;5081941;28;20281;-88
2022/12/22 10:34:29;;;;;;;1.30;0.77;;;13.40;81.80;13.50;95829.00;;;;5079846;28;20227;-87
2022/12/22 10:37:01;;;;;;;1.03;0.67;;;13.40;82.50;13.60;95833.00;;;;5087093;28;20235;-88
2022/12/22 10:39:34;;;;;;;2.30;0.50;;;13.50;82.40;13.60;95831.00;;;;5081187;28;20204;-87
2022/12/22 10:42:08;;;;;;;1.37;0.60;;;13.50;82.30;13.60;95828.00;;;;5077783;28;20287;-88
2022/12/22 10:44:38;;;;;;;1.23;0.60;;;13.50;82.50;13.60;95830.00;;;;5083724;28;20223;-88
2022/12/22 10:47:16;;;;;;;2.37;0.80;;;13.50;82.20;13.70;95836.00;;;;5077495;28;20200;-87
2022/12/22 10:49:48;;;;;;;2.20;1.10;;;13.50;81.90;13.70;95829.00;;;;5079388;28;20246;-88
2022/12/22 10:52:18;;;;;;;0.77;0.60;;;13.50;82.30;13.70;95833.00;;;;5076867;28;20747;-88
2022/12/22 10:54:48;;;;;;;2.47;0.57;;;13.60;82.30;13.70;95822.00;;;;5082144;28;20668;-88
2022/12/22 10:57:29;;;;;;;2.37;0.70;;;13.60;82.00;13.70;95827.00;;;;5080851;28;20665;-88
2022/12/22 10:59:59;;;;;;;1.50;0.90;;;13.60;81.40;13.70;95821.00;;;;5083200;28;20257;-88
2022/12/22 11:02:33;;;;;;;1.20;0.83;;;13.60;82.00;13.70;95822.00;;;;5060338;28;20318;-88
2022/12/22 11:05:07;;;;;;;2.93;0.93;;;13.60;81.80;13.70;95833.00;;;;5077763;28;20344;-88
2022/12/22 11:07:37;;;;;;;1.40;1.20;;;13.60;81.70;13.70;95835.00;;;;5082348;28;20282;-88
2022/12/22 11:10:19;;;;;;;1.33;1.03;;;13.60;81.90;13.80;95832.00;;;;5078780;28;20212;-88
2022/12/22 11:13:07;;;;;;;1.90;0.97;;;13.70;81.30;13.90;95823.00;;;;5086867;28;20251;-88
2022/12/22 11:15:45;;;;;;;2.13;1.00;;;13.70;81.30;13.90;95819.00;;;;5088502;28;20290;-88
2022/12/22 11:18:35;;;;;;;0.80;0.50;;;13.70;81.70;14.00;95813.00;;;;5084958;28;20324;-88
2022/12/22 11:21:09;;;;;;;1.43;0.80;;;13.80;81.30;14.00;95824.00;;;;5078766;28;20207;-86
2022/12/22 11:23:47;;;;;;;1.10;0.53;;;13.80;81.80;14.10;95816.00;;;;5089512;28;20445;-87
2022/12/22 11:26:27;;;;;;;0.70;0.70;;;13.90;81.70;14.10;95822.00;;;;5083911;28;20745;-88
2022/12/22 11:29:29;;;;;;;1.20;0.73;;;13.90;81.10;14.10;95817.00;;;;5079978;28;20726;-88
2022/12/22 11:32:21;;;;;;;2.03;0.80;;;14.00;80.20;14.20;95802.00;;;;5080847;28;20249;-89
2022/12/22 11:35:00;;;;;;;1.63;0.60;;;14.00;80.40;14.10;95830.00;;;;5086105;28;20227;-89
2022/12/22 11:37:42;;;;;;;1.53;0.63;;;14.00;80.40;14.10;95832.00;;;;5083314;28;20287;-88
2022/12/22 11:40:20;;;;;;;1.97;0.83;;;14.00;80.30;14.10;95856.00;;;;5084968;28;20240;-88
2022/12/22 11:43:21;;;;;;;0.73;0.40;;;14.00;80.40;14.00;95862.00;;;;5082541;28;20226;-88
2022/12/22 11:46:06;;;;;;;2.03;0.50;;;14.00;79.60;13.90;95845.00;;;;5080231;28;20286;-88
2022/12/22 11:49:12;;;;;;;2.13;0.60;;;14.00;80.20;13.80;95840.00;;;;5086660;28;20239;-89
2022/12/22 11:52:13;;;;;;;1.53;0.60;;;13.90;80.00;13.70;95847.00;;;;5086952;28;20283;-88
2022/12/22 11:54:59;;;;;;;1.27;0.80;;;13.90;80.50;13.60;95826.00;;;;5072818;28;20255;-89
2022/12/22 11:57:37;;;;;;;1.40;0.70;;;13.80;80.80;13.50;95807.00;;;;5083771;28;20234;-89
2022/12/22 12:00:11;;;;;;;1.83;0.63;;;13.70;81.00;13.50;95790.00;;;;5082306;28;20287;-86
2022/12/22 12:03:20;;;;;;;1.50;0.93;;;13.60;81.20;13.40;95775.00;;;;5082913;28;20269;-89
2022/12/22 12:06:24;;;;;;;2.13;0.70;;;13.50;81.20;13.30;95784.00;;;;5085919;28;20261;-89
2022/12/22 12:09:10;;;;;;;1.83;0.77;;;13.50;81.60;13.30;95780.00;;;;5079477;28;20203;-89
2022/12/22 12:11:52;;;;;;;2.77;1.23;;;13.40;82.20;13.30;95774.00;;;;5087293;28;20716;-89
2022/12/22 12:14:31;;;;;;;2.13;1.00;;;13.30;82.50;13.30;95776.00;;;;5085227;28;20291;-89
2022/12/22 12:17:05;;;;;;;3.13;0.97;;;13.30;82.80;13.30;95769.00;;;;5084587;28;20730;-89
2022/12/22 12:20:05;;;;;;;4.40;1.30;;;13.30;82.90;13.30;95760.00;;;;5083738;28;20199;-88
2022/12/22 12:22:52;;;;;;;2.37;1.17;;;13.30;82.70;13.30;95768.00;;;;5081759;28;20250;-89
2022/12/22 12:25:30;;;;;;;1.83;1.40;;;13.20;83.70;13.40;95769.00;;;;5080762;28;20231;-90
2022/12/22 12:28:17;;;;;;;4.07;1.40;;;13.20;83.20;13.30;95761.00;;;;5081966;28;20308;-89
2022/12/22 12:30:54;;;;;;;2.77;1.10;;;13.20;83.00;13.30;95767.00;;;;5078995;28;20254;-89
2022/12/22 12:33:36;;;;;;;2.90;1.43;;;13.20;83.20;13.30;95765.00;;;;5079715;28;20226;-88
2022/12/22 12:36:13;;;;;;;2.50;1.00;;;13.20;83.40;13.30;95765.00;;;;5079307;28;20228;-87
2022/12/22 12:38:53;;;;;;;2.27;1.30;;;13.10;83.50;13.30;95760.00;;;;5079959;28;20199;-90
2022/12/22 12:41:30;;;;;;;3.47;1.00;;;13.10;83.50;13.30;95756.00;;;;5084260;28;20649;-91
2022/12/22 12:44:00;;;;;;;2.60;1.10;;;13.10;83.60;13.20;95755.00;;;;5082633;28;20599;-91
2022/12/22 12:47:04;;;;;;;2.63;1.10;;;13.10;83.50;13.20;95763.00;;;;5079128;28;20234;-91
2022/12/22 12:50:43;;;;;;;2.50;1.00;;;13.20;83.20;13.20;95764.00;;;;5081063;28;20220;-92
2022/12/22 12:53:12;;;;;;;3.47;1.20;;;13.10;83.30;13.20;95760.00;;;;5041409;28;20223;-91
2022/12/22 12:56:04;;;;;;;2.50;1.00;;;13.10;83.80;13.20;95756.00;;;;5083478;28;20258;-91
2022/12/22 12:58:56;;;;;;;2.33;0.90;;;13.20;83.30;13.20;95753.00;;;;5084388;28;20192;-91
2022/12/22 13:01:59;;;;;;;3.80;1.00;;;13.20;83.30;13.30;95759.00;;;;5082095;28;20207;-91
2022/12/22 13:05:15;;;;;;;3.30;1.27;;;13.20;83.10;13.30;95761.00;;;;5075250;28;20236;-92
2022/12/22 13:08:20;;;;;;;3.43;1.00;;;13.20;83.30;13.30;95759.00;;;;5082351;28;20215;-91
2022/12/22 13:11:31;;;;;;;2.30;1.03;;;13.20;83.10;13.40;95761.00;;;;5083485;28;20249;-89
2022/12/22 13:14:01;;;;;;;4.00;2.00;;;13.30;82.90;13.40;95760.00;;;;5084859;28;20220;-88
2022/12/22 13:16:35;;;;;;;2.80;1.20;;;13.30;83.70;13.40;95762.00;;;;5080537;28;20223;-88
2022/12/22 13:19:14;;;;;;;5.27;2.67;;;13.30;83.10;13.40;95765.00;;;;5082708;28;20654;-89
2022/12/22 13:21:45;;;;;;;1.57;1.30;;;13.30;82.80;13.40;95765.00;;;;5076991;28;20207;-89
2022/12/22 13:24:22;;;;;;;6.47;3.60;;;13.40;82.90;13.50;95761.00;;;;5082897;28;20239;-88
2022/12/22 13:26:54;;;;;;;3.67;1.50;;;13.40;82.70;13.50;95768.00;;;;5084878;28;20199;-89
2022/12/22 13:29:41;;;;;;;5.53;1.53;;;13.40;82.80;13.60;95779.00;;;;5080869;28;20204;-87
2022/12/22 13:32:22;;;;;;;3.70;1.40;;;13.50;82.50;13.60;95783.00;;;;5080818;28;20242;-89
2022/12/22 13:35:00;;;;;;;4.27;1.57;;;13.50;82.10;13.70;95776.00;;;;5100127;28;20246;-89
2022/12/22 13:37:29;;;;;;;3.30;1.00;;;13.50;82.30;13.70;95775.00;;;;5101200;28;20646;-88
2022/12/22 13:40:19;;;;;;;2.87;0.90;;;13.60;82.40;13.70;95774.00;;;;5097736;28;20228;-88
2022/12/22 13:42:51;;;;;;;4.43;1.17;;;13.60;81.90;13.80;95781.00;;;;5097210;28;20231;-88
2022/12/22 13:45:35;;;;;;;6.87;0.73;;;13.70;82.00;13.80;95782.00;;;;5095110;28;20199;-88
2022/12/22 13:48:12;;;;;;;4.00;1.10;;;13.70;81.70;13.90;95780.00;;;;5093952;28;20655;-89
2022/12/22 13:50:45;;;;;;;2.07;0.80;;;13.70;82.00;13.90;95775.00;;;;5097139;28;20200;-89
2022/12/22 13:53:22;;;;;;;1.37;0.80;;;13.80;81.40;13.90;95771.00;;;;5083109;28;20224;-89
2022/12/22 13:55:51;;;;;;;1.77;0.90;;;13.80;81.20;14.00;95775.00;;;;5086252;28;20207;-90
2022/12/22 13:58:28;;;;;;;1.90;0.73;;;13.80;81.30;14.00;95785.00;;;;5094820;28;20211;-91
2022/12/22 14:01:04;;;;;;;4.80;1.80;;;13.90;80.70;14.10;95789.00;;;;5079800;28;20200;-90
2022/12/22 14:03:32;;;;;;;2.90;1.10;;;13.90;80.20;14.10;95782.00;;;;5081345;28;20260;-89
2022/12/22 14:05:59;;;;;;;2.77;1.67;;;14.00;80.70;14.10;95773.00;;;;5078874;28;20569;-88
2022/12/22 14:08:26;;;;;;;3.53;1.30;;;14.00;81.00;14.10;95778.00;;;;5080107;28;20196;-88
2022/12/22 14:10:55;;;;;;;2.97;1.37;;;14.00;80.70;14.20;95781.00;;;;5086806;28;20195;-89
2022/12/22 14:13:30;;;;;;;3.27;1.13;;;14.00;80.30;14.20;95786.00;;;;5093348;28;20238;-89
2022/12/22 14:16:01;;;;;;;4.17;1.63;;;14.10;80.40;14.20;95784.00;;;;5093502;28;20238;-89
2022/12/22 14:18:30;;;;;;;5.07;1.60;;;14.10;80.50;14.30;95793.00;;;;5075228;28;20247;-89
2022/12/22 14:20:58;;;;;;;2.03;1.10;;;14.10;80.60;14.30;95789.00;;;;5075287;28;20268;-89
2022/12/22 14:23:32;;;;;;;2.80;1.00;;;14.20;80.40;14.30;95788.00;;;;5075319;28;20216;-89
2022/12/22 14:26:01;;;;;;;2.87;1.07;;;14.20;80.00;14.40;95794.00;;;;5082478;28;20289;-90
2022/12/22 14:28:35;;;;;;;2.07;1.13;;;14.20;80.10;14.40;95791.00;;;;5077455;28;20204;-89
2022/12/22 14:31:05;;;;;;;1.93;1.23;;;14.30;79.80;14.40;95798.00;;;;5077048;28;20280;-89
2022/12/22 14:33:35;;;;;;;3.37;1.20;;;14.30;79.90;14.50;95795.00;;;;5073540;28;20638;-89
2022/12/22 14:36:16;;;;;;;3.13;1.03;;;14.30;79.50;14.50;95803.00;;;;5066862;28;20813;-90
2022/12/22 14:38:46;;;;;;;3.93;1.23;;;14.30;79.30;14.50;95799.00;;;;5078200;28;20220;-89
2022/12/22 14:44:16;;;;;;;4.77;1.37;;;14.40;78.90;14.50;95801.00;;;;5078972;28;20226;-90
2022/12/22 14:46:45;;;;;;;3.57;1.30;;;14.40;78.80;14.50;95802.00;;;;5081316;28;20207;-88
2022/12/22 14:49:17;;;;;;;1.97;0.90;;;14.40;79.40;14.50;95806.00;;;;5079649;28;20208;-89
2022/12/22 14:51:54;;;;;;;3.53;1.23;;;14.40;79.00;14.50;95803.00;;;;5062913;28;20182;-89
2022/12/22 14:54:27;;;;;;;4.03;1.07;;;14.40;78.50;14.50;95800.00;;;;5082543;28;20191;-89
2022/12/22 14:57:03;;;;;;;4.13;1.10;;;14.40;78.20;14.50;95812.00;;;;5079714;28;20313;-91
2022/12/22 14:59:31;;;;;;;2.40;1.20;;;14.40;78.20;14.50;95812.00;;;;5082105;28;20709;-90
2022/12/22 15:02:03;;;;;;;3.60;1.27;;;14.40;78.80;14.50;95814.00;;;;5073895;28;20246;-92
2022/12/22 15:04:31;;;;;;;4.23;0.97;;;14.40;78.50;14.50;95821.00;;;;5076697;28;20192;-90
2022/12/22 15:07:16;;;;;;;2.77;1.17;;;14.40;78.20;14.40;95829.00;;;;5083089;28;20290;-91
2022/12/22 15:09:43;;;;;;;5.50;1.50;;;14.40;77.80;14.40;95828.00;;;;5085274;28;20212;-90
2022/12/22 15:12:15;;;;;;;2.67;1.03;;;14.40;78.20;14.40;95826.00;;;;5082712;28;20648;-90